sensor_id;sensor_type;location;lat;lon;timestamp;P1;durP1;ratioP1;P2;durP2;ratioP2
6825;SDS011;3451;52.476;13.316;2022-09-29T00:00:33;9.00;;;5.17;;
6825;SDS011;3451;52.476;13.316;2022-09-29T00:03:00;5.83;;;5.00;;
6825;SDS011;3451;52.476;13.316;2022-09-29T00:05:27;6.07;;;4.67;;
6825;SDS011;3451;52.476;13.316;2022-09-29T00:07:53;6.33;;;4.67;;
6825;SDS011;3451;52.476;13.316;2022-09-29T00:10:19;5.87;;;4.50;;
6825;SDS011;3451;52.476;13.316;2022-09-29T00:12:45;6.40;;;5.03;;
6825;SDS011;3451;52.476;13.316;2022-09-29T00:15:12;7.10;;;5.30;;
6825;SDS011;3451;52.476;13.316;2022-09-29T00:17:39;9.40;;;5.17;;
6825;SDS011;3451;52.476;13.316;2022-09-29T00:20:26;6.87;;;5.40;;
6825;SDS011;3451;52.476;13.316;2022-09-29T00:22:52;8.27;;;5.30;;
6825;SDS011;3451;52.476;13.316;2022-09-29T00:25:18;7.20;;;5.43;;
6825;SDS011;3451;52.476;13.316;2022-09-29T00:27:45;6.60;;;5.30;;
6825;SDS011;3451;52.476;13.316;2022-09-29T00:30:11;5.90;;;4.83;;
6825;SDS011;3451;52.476;13.316;2022-09-29T00:32:38;6.40;;;5.17;;
6825;SDS011;3451;52.476;13.316;2022-09-29T00:35:04;8.07;;;5.10;;
6825;SDS011;3451;52.476;13.316;2022-09-29T00:37:33;8.07;;;5.43;;
6825;SDS011;3451;52.476;13.316;2022-09-29T00:39:59;9.17;;;5.20;;
6825;SDS011;3451;52.476;13.316;2022-09-29T00:42:26;7.97;;;5.67;;
6825;SDS011;3451;52.476;13.316;2022-09-29T00:47:22;6.37;;;5.20;;
6825;SDS011;3451;52.476;13.316;2022-09-29T00:49:52;6.03;;;5.20;;
6825;SDS011;3451;52.476;13.316;2022-09-29T00:52:36;7.70;;;4.77;;
6825;SDS011;3451;52.476;13.316;2022-09-29T00:57:33;7.13;;;5.20;;
6825;SDS011;3451;52.476;13.316;2022-09-29T01:00:06;7.40;;;5.00;;
6825;SDS011;3451;52.476;13.316;2022-09-29T01:02:38;6.77;;;5.50;;
6825;SDS011;3451;52.476;13.316;2022-09-29T01:05:06;7.80;;;5.10;;
6825;SDS011;3451;52.476;13.316;2022-09-29T01:07:34;6.60;;;5.33;;
6825;SDS011;3451;52.476;13.316;2022-09-29T01:10:01;7.03;;;5.27;;
6825;SDS011;3451;52.476;13.316;2022-09-29T01:12:27;7.30;;;5.60;;
6825;SDS011;3451;52.476;13.316;2022-09-29T01:14:53;7.20;;;5.30;;
6825;SDS011;3451;52.476;13.316;2022-09-29T01:17:20;6.53;;;5.07;;
6825;SDS011;3451;52.476;13.316;2022-09-29T01:22:24;9.93;;;5.40;;
6825;SDS011;3451;52.476;13.316;2022-09-29T01:30:38;8.03;;;5.47;;
6825;SDS011;3451;52.476;13.316;2022-09-29T01:38:17;7.80;;;5.10;;
6825;SDS011;3451;52.476;13.316;2022-09-29T01:43:19;7.07;;;5.47;;
6825;SDS011;3451;52.476;13.316;2022-09-29T01:45:50;6.73;;;5.13;;
6825;SDS011;3451;52.476;13.316;2022-09-29T01:48:24;7.13;;;5.57;;
6825;SDS011;3451;52.476;13.316;2022-09-29T01:50:52;8.13;;;5.80;;
6825;SDS011;3451;52.476;13.316;2022-09-29T01:53:25;8.20;;;5.87;;
6825;SDS011;3451;52.476;13.316;2022-09-29T01:55:55;8.43;;;5.23;;
6825;SDS011;3451;52.476;13.316;2022-09-29T01:58:25;8.10;;;5.43;;
6825;SDS011;3451;52.476;13.316;2022-09-29T02:00:54;7.73;;;5.73;;
6825;SDS011;3451;52.476;13.316;2022-09-29T02:03:24;7.23;;;5.27;;
6825;SDS011;3451;52.476;13.316;2022-09-29T02:05:55;10.20;;;5.90;;
6825;SDS011;3451;52.476;13.316;2022-09-29T02:08:28;7.87;;;5.63;;
6825;SDS011;3451;52.476;13.316;2022-09-29T02:11:07;7.47;;;5.80;;
6825;SDS011;3451;52.476;13.316;2022-09-29T02:13:39;7.30;;;5.27;;
6825;SDS011;3451;52.476;13.316;2022-09-29T02:16:07;11.00;;;6.70;;
6825;SDS011;3451;52.476;13.316;2022-09-29T02:18:37;11.53;;;5.80;;
6825;SDS011;3451;52.476;13.316;2022-09-29T02:21:06;8.27;;;5.87;;
6825;SDS011;3451;52.476;13.316;2022-09-29T02:23:33;9.60;;;6.00;;
6825;SDS011;3451;52.476;13.316;2022-09-29T02:25:59;7.57;;;5.67;;
6825;SDS011;3451;52.476;13.316;2022-09-29T02:28:25;10.20;;;6.10;;
6825;SDS011;3451;52.476;13.316;2022-09-29T02:30:52;11.17;;;5.80;;
6825;SDS011;3451;52.476;13.316;2022-09-29T02:33:19;8.20;;;6.50;;
6825;SDS011;3451;52.476;13.316;2022-09-29T02:41:03;11.43;;;6.10;;
6825;SDS011;3451;52.476;13.316;2022-09-29T02:43:45;8.63;;;6.27;;
6825;SDS011;3451;52.476;13.316;2022-09-29T02:46:24;8.37;;;6.50;;
6825;SDS011;3451;52.476;13.316;2022-09-29T02:51:36;8.97;;;6.87;;
6825;SDS011;3451;52.476;13.316;2022-09-29T02:59:47;9.67;;;6.73;;
6825;SDS011;3451;52.476;13.316;2022-09-29T03:02:21;9.43;;;7.23;;
6825;SDS011;3451;52.476;13.316;2022-09-29T03:04:47;10.17;;;7.53;;
6825;SDS011;3451;52.476;13.316;2022-09-29T03:07:14;9.43;;;7.03;;
6825;SDS011;3451;52.476;13.316;2022-09-29T03:09:40;9.57;;;7.40;;
6825;SDS011;3451;52.476;13.316;2022-09-29T03:12:06;9.70;;;6.97;;
6825;SDS011;3451;52.476;13.316;2022-09-29T03:14:32;10.23;;;7.70;;
6825;SDS011;3451;52.476;13.316;2022-09-29T03:16:59;9.40;;;7.17;;
6825;SDS011;3451;52.476;13.316;2022-09-29T03:19:25;11.10;;;7.30;;
6825;SDS011;3451;52.476;13.316;2022-09-29T03:21:51;10.53;;;7.33;;
6825;SDS011;3451;52.476;13.316;2022-09-29T03:24:17;10.77;;;7.60;;
6825;SDS011;3451;52.476;13.316;2022-09-29T03:26:44;10.97;;;8.00;;
6825;SDS011;3451;52.476;13.316;2022-09-29T03:29:10;11.47;;;7.50;;
6825;SDS011;3451;52.476;13.316;2022-09-29T03:31:38;10.60;;;8.17;;
6825;SDS011;3451;52.476;13.316;2022-09-29T03:34:05;11.97;;;8.07;;
6825;SDS011;3451;52.476;13.316;2022-09-29T03:36:31;12.07;;;8.10;;
6825;SDS011;3451;52.476;13.316;2022-09-29T03:38:57;10.53;;;8.10;;
6825;SDS011;3451;52.476;13.316;2022-09-29T03:41:24;12.50;;;8.73;;
6825;SDS011;3451;52.476;13.316;2022-09-29T03:43:50;12.13;;;8.60;;
6825;SDS011;3451;52.476;13.316;2022-09-29T03:46:16;12.10;;;9.00;;
6825;SDS011;3451;52.476;13.316;2022-09-29T03:48:43;14.17;;;8.70;;
6825;SDS011;3451;52.476;13.316;2022-09-29T03:51:10;13.03;;;9.13;;
6825;SDS011;3451;52.476;13.316;2022-09-29T03:53:36;12.23;;;8.53;;
6825;SDS011;3451;52.476;13.316;2022-09-29T03:56:02;12.53;;;8.57;;
6825;SDS011;3451;52.476;13.316;2022-09-29T03:58:29;10.60;;;8.03;;
6825;SDS011;3451;52.476;13.316;2022-09-29T04:00:55;11.37;;;8.10;;
6825;SDS011;3451;52.476;13.316;2022-09-29T04:03:22;14.90;;;9.10;;
6825;SDS011;3451;52.476;13.316;2022-09-29T04:05:48;12.10;;;8.10;;
6825;SDS011;3451;52.476;13.316;2022-09-29T04:08:15;13.40;;;9.50;;
6825;SDS011;3451;52.476;13.316;2022-09-29T04:10:41;11.93;;;8.90;;
6825;SDS011;3451;52.476;13.316;2022-09-29T04:13:07;10.83;;;8.10;;
6825;SDS011;3451;52.476;13.316;2022-09-29T04:15:34;12.10;;;8.87;;
6825;SDS011;3451;52.476;13.316;2022-09-29T04:18:00;12.67;;;8.97;;
6825;SDS011;3451;52.476;13.316;2022-09-29T04:20:26;13.90;;;9.30;;
6825;SDS011;3451;52.476;13.316;2022-09-29T04:22:52;13.67;;;9.00;;
6825;SDS011;3451;52.476;13.316;2022-09-29T04:25:19;13.80;;;9.27;;
6825;SDS011;3451;52.476;13.316;2022-09-29T04:27:45;13.20;;;9.10;;
6825;SDS011;3451;52.476;13.316;2022-09-29T04:30:11;11.17;;;8.67;;
6825;SDS011;3451;52.476;13.316;2022-09-29T04:32:38;13.97;;;9.37;;
6825;SDS011;3451;52.476;13.316;2022-09-29T04:35:04;12.27;;;8.80;;
6825;SDS011;3451;52.476;13.316;2022-09-29T04:37:30;12.73;;;9.03;;
6825;SDS011;3451;52.476;13.316;2022-09-29T04:39:57;14.93;;;9.63;;
6825;SDS011;3451;52.476;13.316;2022-09-29T04:42:23;13.43;;;8.90;;
6825;SDS011;3451;52.476;13.316;2022-09-29T04:44:49;14.60;;;9.20;;
6825;SDS011;3451;52.476;13.316;2022-09-29T04:47:15;13.40;;;9.13;;
6825;SDS011;3451;52.476;13.316;2022-09-29T04:49:42;13.07;;;9.20;;
6825;SDS011;3451;52.476;13.316;2022-09-29T04:52:10;13.63;;;9.33;;
6825;SDS011;3451;52.476;13.316;2022-09-29T04:54:37;14.33;;;9.00;;
6825;SDS011;3451;52.476;13.316;2022-09-29T04:57:03;13.03;;;8.77;;
6825;SDS011;3451;52.476;13.316;2022-09-29T04:59:31;13.63;;;9.30;;
6825;SDS011;3451;52.476;13.316;2022-09-29T05:01:57;12.60;;;8.93;;
6825;SDS011;3451;52.476;13.316;2022-09-29T05:04:24;13.43;;;9.07;;
6825;SDS011;3451;52.476;13.316;2022-09-29T05:06:50;13.43;;;8.97;;
6825;SDS011;3451;52.476;13.316;2022-09-29T05:09:16;15.40;;;8.97;;
6825;SDS011;3451;52.476;13.316;2022-09-29T05:11:44;13.97;;;9.23;;
6825;SDS011;3451;52.476;13.316;2022-09-29T05:14:11;14.17;;;9.20;;
6825;SDS011;3451;52.476;13.316;2022-09-29T05:16:37;14.63;;;9.63;;
6825;SDS011;3451;52.476;13.316;2022-09-29T05:19:03;13.73;;;9.70;;
6825;SDS011;3451;52.476;13.316;2022-09-29T05:21:30;12.43;;;8.90;;
6825;SDS011;3451;52.476;13.316;2022-09-29T05:23:56;15.93;;;9.63;;
6825;SDS011;3451;52.476;13.316;2022-09-29T05:26:23;14.80;;;9.37;;
6825;SDS011;3451;52.476;13.316;2022-09-29T05:28:49;14.03;;;9.47;;
6825;SDS011;3451;52.476;13.316;2022-09-29T05:31:15;13.70;;;8.97;;
6825;SDS011;3451;52.476;13.316;2022-09-29T05:33:43;12.17;;;8.53;;
6825;SDS011;3451;52.476;13.316;2022-09-29T05:36:10;12.77;;;8.63;;
6825;SDS011;3451;52.476;13.316;2022-09-29T05:38:37;14.07;;;9.10;;
6825;SDS011;3451;52.476;13.316;2022-09-29T05:41:10;12.97;;;9.50;;
6825;SDS011;3451;52.476;13.316;2022-09-29T05:43:37;16.97;;;9.63;;
6825;SDS011;3451;52.476;13.316;2022-09-29T05:46:05;14.17;;;9.23;;
6825;SDS011;3451;52.476;13.316;2022-09-29T05:48:32;13.03;;;9.30;;
6825;SDS011;3451;52.476;13.316;2022-09-29T05:51:05;12.27;;;8.77;;
6825;SDS011;3451;52.476;13.316;2022-09-29T05:53:31;12.13;;;9.10;;
6825;SDS011;3451;52.476;13.316;2022-09-29T05:55:57;14.70;;;9.80;;
6825;SDS011;3451;52.476;13.316;2022-09-29T05:58:24;12.50;;;9.03;;
6825;SDS011;3451;52.476;13.316;2022-09-29T06:00:50;13.17;;;9.63;;
6825;SDS011;3451;52.476;13.316;2022-09-29T06:03:21;13.53;;;9.63;;
6825;SDS011;3451;52.476;13.316;2022-09-29T06:05:47;13.60;;;9.03;;
6825;SDS011;3451;52.476;13.316;2022-09-29T06:08:14;14.37;;;9.00;;
6825;SDS011;3451;52.476;13.316;2022-09-29T06:10:41;14.80;;;9.33;;
6825;SDS011;3451;52.476;13.316;2022-09-29T06:13:07;15.20;;;9.40;;
6825;SDS011;3451;52.476;13.316;2022-09-29T06:15:33;15.67;;;9.67;;
6825;SDS011;3451;52.476;13.316;2022-09-29T06:18:00;16.27;;;10.07;;
6825;SDS011;3451;52.476;13.316;2022-09-29T06:20:26;13.20;;;9.40;;
6825;SDS011;3451;52.476;13.316;2022-09-29T06:22:53;14.13;;;10.10;;
6825;SDS011;3451;52.476;13.316;2022-09-29T06:25:19;13.57;;;9.60;;
6825;SDS011;3451;52.476;13.316;2022-09-29T06:27:46;14.87;;;9.70;;
6825;SDS011;3451;52.476;13.316;2022-09-29T06:30:12;15.17;;;9.97;;
6825;SDS011;3451;52.476;13.316;2022-09-29T06:32:39;14.10;;;9.53;;
6825;SDS011;3451;52.476;13.316;2022-09-29T06:35:06;14.67;;;10.20;;
6825;SDS011;3451;52.476;13.316;2022-09-29T06:37:52;17.27;;;10.63;;
6825;SDS011;3451;52.476;13.316;2022-09-29T06:40:19;14.93;;;10.13;;
6825;SDS011;3451;52.476;13.316;2022-09-29T06:42:48;15.13;;;10.10;;
6825;SDS011;3451;52.476;13.316;2022-09-29T06:45:15;15.83;;;10.93;;
6825;SDS011;3451;52.476;13.316;2022-09-29T06:47:47;16.27;;;10.73;;
6825;SDS011;3451;52.476;13.316;2022-09-29T06:50:13;15.33;;;10.53;;
6825;SDS011;3451;52.476;13.316;2022-09-29T06:52:47;20.73;;;10.93;;
6825;SDS011;3451;52.476;13.316;2022-09-29T06:55:28;15.77;;;11.13;;
6825;SDS011;3451;52.476;13.316;2022-09-29T06:57:55;22.17;;;12.13;;
6825;SDS011;3451;52.476;13.316;2022-09-29T07:00:27;18.27;;;12.20;;
6825;SDS011;3451;52.476;13.316;2022-09-29T07:02:54;18.17;;;12.23;;
6825;SDS011;3451;52.476;13.316;2022-09-29T07:05:20;20.17;;;12.20;;
6825;SDS011;3451;52.476;13.316;2022-09-29T07:07:47;23.73;;;12.63;;
6825;SDS011;3451;52.476;13.316;2022-09-29T07:10:18;19.33;;;12.60;;
6825;SDS011;3451;52.476;13.316;2022-09-29T07:12:45;20.60;;;12.67;;
6825;SDS011;3451;52.476;13.316;2022-09-29T07:15:12;21.70;;;12.83;;
6825;SDS011;3451;52.476;13.316;2022-09-29T07:17:38;22.80;;;12.30;;
6825;SDS011;3451;52.476;13.316;2022-09-29T07:20:05;20.17;;;12.90;;
6825;SDS011;3451;52.476;13.316;2022-09-29T07:22:32;23.10;;;13.33;;
6825;SDS011;3451;52.476;13.316;2022-09-29T07:24:58;18.97;;;13.00;;
6825;SDS011;3451;52.476;13.316;2022-09-29T07:27:25;19.57;;;12.50;;
6825;SDS011;3451;52.476;13.316;2022-09-29T07:29:51;21.60;;;13.47;;
6825;SDS011;3451;52.476;13.316;2022-09-29T07:32:29;19.53;;;13.07;;
6825;SDS011;3451;52.476;13.316;2022-09-29T07:34:55;24.27;;;13.87;;
6825;SDS011;3451;52.476;13.316;2022-09-29T07:37:21;21.53;;;12.43;;
6825;SDS011;3451;52.476;13.316;2022-09-29T07:39:47;22.33;;;13.13;;
6825;SDS011;3451;52.476;13.316;2022-09-29T07:42:14;21.60;;;13.43;;
6825;SDS011;3451;52.476;13.316;2022-09-29T07:44:40;18.23;;;12.87;;
6825;SDS011;3451;52.476;13.316;2022-09-29T07:47:06;19.20;;;12.47;;
6825;SDS011;3451;52.476;13.316;2022-09-29T07:49:32;23.47;;;14.23;;
6825;SDS011;3451;52.476;13.316;2022-09-29T07:51:59;22.33;;;13.57;;
6825;SDS011;3451;52.476;13.316;2022-09-29T07:54:25;23.23;;;13.67;;
6825;SDS011;3451;52.476;13.316;2022-09-29T07:56:54;20.03;;;13.00;;
6825;SDS011;3451;52.476;13.316;2022-09-29T07:59:21;20.43;;;13.23;;
6825;SDS011;3451;52.476;13.316;2022-09-29T08:01:47;21.17;;;13.70;;
6825;SDS011;3451;52.476;13.316;2022-09-29T08:04:13;22.93;;;13.13;;
6825;SDS011;3451;52.476;13.316;2022-09-29T08:06:40;20.53;;;13.10;;
6825;SDS011;3451;52.476;13.316;2022-09-29T08:09:06;22.00;;;12.63;;
6825;SDS011;3451;52.476;13.316;2022-09-29T08:11:35;21.50;;;13.20;;
6825;SDS011;3451;52.476;13.316;2022-09-29T08:14:02;18.47;;;13.07;;
6825;SDS011;3451;52.476;13.316;2022-09-29T08:16:28;19.07;;;12.37;;
6825;SDS011;3451;52.476;13.316;2022-09-29T08:18:55;19.43;;;12.83;;
6825;SDS011;3451;52.476;13.316;2022-09-29T08:21:21;18.63;;;12.47;;
6825;SDS011;3451;52.476;13.316;2022-09-29T08:23:47;20.37;;;13.23;;
6825;SDS011;3451;52.476;13.316;2022-09-29T08:26:15;19.10;;;12.73;;
6825;SDS011;3451;52.476;13.316;2022-09-29T08:28:42;18.50;;;13.33;;
6825;SDS011;3451;52.476;13.316;2022-09-29T08:31:15;19.40;;;12.90;;
6825;SDS011;3451;52.476;13.316;2022-09-29T08:33:46;19.13;;;12.93;;
6825;SDS011;3451;52.476;13.316;2022-09-29T08:36:14;20.63;;;12.53;;
6825;SDS011;3451;52.476;13.316;2022-09-29T08:38:44;20.37;;;13.53;;
6825;SDS011;3451;52.476;13.316;2022-09-29T08:41:24;19.40;;;13.00;;
6825;SDS011;3451;52.476;13.316;2022-09-29T08:43:55;20.73;;;13.40;;
6825;SDS011;3451;52.476;13.316;2022-09-29T08:46:27;20.63;;;14.00;;
6825;SDS011;3451;52.476;13.316;2022-09-29T08:49:02;20.23;;;12.90;;
6825;SDS011;3451;52.476;13.316;2022-09-29T08:51:33;20.20;;;13.47;;
6825;SDS011;3451;52.476;13.316;2022-09-29T08:54:12;19.27;;;13.77;;
6825;SDS011;3451;52.476;13.316;2022-09-29T08:56:45;20.37;;;13.73;;
6825;SDS011;3451;52.476;13.316;2022-09-29T08:59:11;19.47;;;13.13;;
6825;SDS011;3451;52.476;13.316;2022-09-29T09:01:50;21.20;;;12.93;;
6825;SDS011;3451;52.476;13.316;2022-09-29T09:04:37;17.57;;;12.53;;
6825;SDS011;3451;52.476;13.316;2022-09-29T09:10:07;19.73;;;13.03;;
6825;SDS011;3451;52.476;13.316;2022-09-29T09:15:24;19.20;;;12.10;;
6825;SDS011;3451;52.476;13.316;2022-09-29T09:20:34;16.17;;;11.20;;
6825;SDS011;3451;52.476;13.316;2022-09-29T09:23:07;17.10;;;11.37;;
6825;SDS011;3451;52.476;13.316;2022-09-29T09:25:40;15.50;;;11.27;;
6825;SDS011;3451;52.476;13.316;2022-09-29T09:28:14;14.97;;;11.07;;
6825;SDS011;3451;52.476;13.316;2022-09-29T09:30:43;15.33;;;10.80;;
6825;SDS011;3451;52.476;13.316;2022-09-29T09:33:14;15.03;;;10.63;;
6825;SDS011;3451;52.476;13.316;2022-09-29T09:35:57;12.93;;;9.83;;
6825;SDS011;3451;52.476;13.316;2022-09-29T09:38:26;14.13;;;9.50;;
6825;SDS011;3451;52.476;13.316;2022-09-29T09:40:54;13.83;;;9.93;;
6825;SDS011;3451;52.476;13.316;2022-09-29T09:43:29;15.63;;;10.03;;
6825;SDS011;3451;52.476;13.316;2022-09-29T09:45:59;13.67;;;9.33;;
6825;SDS011;3451;52.476;13.316;2022-09-29T09:48:29;13.07;;;9.30;;
6825;SDS011;3451;52.476;13.316;2022-09-29T09:50:58;15.10;;;9.93;;
6825;SDS011;3451;52.476;13.316;2022-09-29T09:53:30;12.10;;;9.20;;
6825;SDS011;3451;52.476;13.316;2022-09-29T09:56:09;13.13;;;8.70;;
6825;SDS011;3451;52.476;13.316;2022-09-29T09:58:47;13.50;;;8.97;;
6825;SDS011;3451;52.476;13.316;2022-09-29T10:01:20;10.70;;;8.20;;
6825;SDS011;3451;52.476;13.316;2022-09-29T10:03:47;9.57;;;7.50;;
6825;SDS011;3451;52.476;13.316;2022-09-29T10:06:13;8.83;;;7.23;;
6825;SDS011;3451;52.476;13.316;2022-09-29T10:08:40;9.63;;;7.10;;
6825;SDS011;3451;52.476;13.316;2022-09-29T10:11:19;12.17;;;7.50;;
6825;SDS011;3451;52.476;13.316;2022-09-29T10:13:46;8.50;;;6.03;;
6825;SDS011;3451;52.476;13.316;2022-09-29T10:16:19;8.30;;;6.33;;
6825;SDS011;3451;52.476;13.316;2022-09-29T10:18:49;9.33;;;6.53;;
6825;SDS011;3451;52.476;13.316;2022-09-29T10:21:22;7.57;;;5.77;;
6825;SDS011;3451;52.476;13.316;2022-09-29T10:24:00;8.37;;;6.37;;
6825;SDS011;3451;52.476;13.316;2022-09-29T10:26:40;6.50;;;5.03;;
6825;SDS011;3451;52.476;13.316;2022-09-29T10:32:14;7.30;;;5.77;;
6825;SDS011;3451;52.476;13.316;2022-09-29T10:34:51;6.50;;;5.40;;
6825;SDS011;3451;52.476;13.316;2022-09-29T10:37:38;7.33;;;5.53;;
6825;SDS011;3451;52.476;13.316;2022-09-29T10:42:33;5.40;;;4.70;;
6825;SDS011;3451;52.476;13.316;2022-09-29T10:45:10;6.30;;;5.00;;
6825;SDS011;3451;52.476;13.316;2022-09-29T10:47:36;5.97;;;4.97;;
6825;SDS011;3451;52.476;13.316;2022-09-29T10:50:10;6.33;;;4.27;;
6825;SDS011;3451;52.476;13.316;2022-09-29T10:52:37;6.17;;;5.07;;
6825;SDS011;3451;52.476;13.316;2022-09-29T10:55:13;6.93;;;5.37;;
6825;SDS011;3451;52.476;13.316;2022-09-29T10:57:40;7.13;;;5.57;;
6825;SDS011;3451;52.476;13.316;2022-09-29T11:00:06;6.63;;;4.70;;
6825;SDS011;3451;52.476;13.316;2022-09-29T11:02:48;9.20;;;4.60;;
6825;SDS011;3451;52.476;13.316;2022-09-29T11:05:16;8.93;;;5.23;;
6825;SDS011;3451;52.476;13.316;2022-09-29T11:07:46;6.97;;;4.40;;
6825;SDS011;3451;52.476;13.316;2022-09-29T11:10:31;4.90;;;4.20;;
6825;SDS011;3451;52.476;13.316;2022-09-29T11:12:57;4.60;;;3.83;;
6825;SDS011;3451;52.476;13.316;2022-09-29T11:15:27;4.67;;;3.50;;
6825;SDS011;3451;52.476;13.316;2022-09-29T11:17:53;5.90;;;3.40;;
6825;SDS011;3451;52.476;13.316;2022-09-29T11:20:22;4.80;;;3.90;;
6825;SDS011;3451;52.476;13.316;2022-09-29T11:23:01;4.33;;;3.40;;
6825;SDS011;3451;52.476;13.316;2022-09-29T11:25:31;4.63;;;3.20;;
6825;SDS011;3451;52.476;13.316;2022-09-29T11:28:24;6.33;;;3.80;;
6825;SDS011;3451;52.476;13.316;2022-09-29T11:36:03;4.83;;;3.30;;
6825;SDS011;3451;52.476;13.316;2022-09-29T11:38:45;4.50;;;3.10;;
6825;SDS011;3451;52.476;13.316;2022-09-29T11:43:49;4.77;;;3.60;;
6825;SDS011;3451;52.476;13.316;2022-09-29T11:46:24;4.30;;;3.20;;
6825;SDS011;3451;52.476;13.316;2022-09-29T11:49:15;4.13;;;3.10;;
6825;SDS011;3451;52.476;13.316;2022-09-29T11:52:00;2.97;;;2.67;;
6825;SDS011;3451;52.476;13.316;2022-09-29T11:54:33;4.20;;;2.67;;
6825;SDS011;3451;52.476;13.316;2022-09-29T12:04:54;4.40;;;3.10;;
6825;SDS011;3451;52.476;13.316;2022-09-29T12:09:57;2.87;;;2.50;;
6825;SDS011;3451;52.476;13.316;2022-09-29T12:12:30;3.37;;;2.20;;
6825;SDS011;3451;52.476;13.316;2022-09-29T12:17:40;3.57;;;2.50;;
6825;SDS011;3451;52.476;13.316;2022-09-29T12:20:13;3.17;;;2.30;;
6825;SDS011;3451;52.476;13.316;2022-09-29T12:22:42;2.67;;;2.30;;
6825;SDS011;3451;52.476;13.316;2022-09-29T12:25:12;3.33;;;2.80;;
6825;SDS011;3451;52.476;13.316;2022-09-29T12:27:40;4.40;;;2.90;;
6825;SDS011;3451;52.476;13.316;2022-09-29T12:32:43;4.53;;;2.70;;
6825;SDS011;3451;52.476;13.316;2022-09-29T12:35:24;3.53;;;3.10;;
6825;SDS011;3451;52.476;13.316;2022-09-29T12:38:04;4.13;;;3.13;;
6825;SDS011;3451;52.476;13.316;2022-09-29T12:40:36;4.40;;;3.47;;
6825;SDS011;3451;52.476;13.316;2022-09-29T12:48:30;6.93;;;3.83;;
6825;SDS011;3451;52.476;13.316;2022-09-29T12:51:11;4.10;;;3.13;;
6825;SDS011;3451;52.476;13.316;2022-09-29T12:56:25;4.60;;;3.70;;
6825;SDS011;3451;52.476;13.316;2022-09-29T12:58:58;5.43;;;3.73;;
6825;SDS011;3451;52.476;13.316;2022-09-29T13:01:33;6.07;;;3.67;;
6825;SDS011;3451;52.476;13.316;2022-09-29T13:06:33;4.83;;;3.50;;
6825;SDS011;3451;52.476;13.316;2022-09-29T13:09:08;5.37;;;3.17;;
6825;SDS011;3451;52.476;13.316;2022-09-29T13:17:42;2.40;;;2.00;;
6825;SDS011;3451;52.476;13.316;2022-09-29T13:20:25;2.60;;;1.93;;
6825;SDS011;3451;52.476;13.316;2022-09-29T13:25:53;5.10;;;2.47;;
6825;SDS011;3451;52.476;13.316;2022-09-29T13:28:24;4.07;;;2.43;;
6825;SDS011;3451;52.476;13.316;2022-09-29T13:30:53;3.17;;;2.70;;
6825;SDS011;3451;52.476;13.316;2022-09-29T13:33:24;4.10;;;2.43;;
6825;SDS011;3451;52.476;13.316;2022-09-29T13:35:50;2.23;;;1.80;;
6825;SDS011;3451;52.476;13.316;2022-09-29T13:38:22;4.07;;;2.13;;
6825;SDS011;3451;52.476;13.316;2022-09-29T13:41:08;2.73;;;2.00;;
6825;SDS011;3451;52.476;13.316;2022-09-29T13:43:39;2.33;;;1.77;;
6825;SDS011;3451;52.476;13.316;2022-09-29T13:49:01;4.43;;;2.10;;
6825;SDS011;3451;52.476;13.316;2022-09-29T13:51:28;2.90;;;1.87;;
6825;SDS011;3451;52.476;13.316;2022-09-29T13:56:51;3.17;;;2.00;;
6825;SDS011;3451;52.476;13.316;2022-09-29T13:59:23;2.97;;;2.10;;
6825;SDS011;3451;52.476;13.316;2022-09-29T14:01:50;2.70;;;2.00;;
6825;SDS011;3451;52.476;13.316;2022-09-29T14:04:33;2.03;;;1.83;;
6825;SDS011;3451;52.476;13.316;2022-09-29T14:07:03;2.23;;;1.83;;
6825;SDS011;3451;52.476;13.316;2022-09-29T14:09:30;4.17;;;2.10;;
6825;SDS011;3451;52.476;13.316;2022-09-29T14:11:59;2.97;;;2.07;;
6825;SDS011;3451;52.476;13.316;2022-09-29T14:14:31;3.80;;;2.20;;
6825;SDS011;3451;52.476;13.316;2022-09-29T14:22:00;4.47;;;1.93;;
6825;SDS011;3451;52.476;13.316;2022-09-29T14:32:39;2.27;;;2.00;;
6825;SDS011;3451;52.476;13.316;2022-09-29T14:38:00;3.23;;;2.40;;
6825;SDS011;3451;52.476;13.316;2022-09-29T14:40:27;2.73;;;2.27;;
6825;SDS011;3451;52.476;13.316;2022-09-29T14:43:13;2.40;;;2.00;;
6825;SDS011;3451;52.476;13.316;2022-09-29T14:51:50;4.30;;;1.80;;
6825;SDS011;3451;52.476;13.316;2022-09-29T14:54:29;3.70;;;2.10;;
6825;SDS011;3451;52.476;13.316;2022-09-29T14:57:03;3.67;;;2.40;;
6825;SDS011;3451;52.476;13.316;2022-09-29T15:04:44;2.73;;;2.20;;
6825;SDS011;3451;52.476;13.316;2022-09-29T15:07:12;2.47;;;2.20;;
6825;SDS011;3451;52.476;13.316;2022-09-29T15:09:42;2.43;;;2.00;;
6825;SDS011;3451;52.476;13.316;2022-09-29T15:12:13;2.70;;;2.10;;
6825;SDS011;3451;52.476;13.316;2022-09-29T15:14:40;4.60;;;2.30;;
6825;SDS011;3451;52.476;13.316;2022-09-29T15:20:16;2.50;;;1.90;;
6825;SDS011;3451;52.476;13.316;2022-09-29T15:22:48;2.40;;;2.13;;
6825;SDS011;3451;52.476;13.316;2022-09-29T15:25:29;3.07;;;2.43;;
6825;SDS011;3451;52.476;13.316;2022-09-29T15:27:58;3.57;;;2.43;;
6825;SDS011;3451;52.476;13.316;2022-09-29T15:30:27;3.47;;;2.70;;
6825;SDS011;3451;52.476;13.316;2022-09-29T15:33:01;3.73;;;2.70;;
6825;SDS011;3451;52.476;13.316;2022-09-29T15:35:29;3.73;;;2.70;;
6825;SDS011;3451;52.476;13.316;2022-09-29T15:37:57;2.80;;;2.40;;
6825;SDS011;3451;52.476;13.316;2022-09-29T15:40:25;2.77;;;2.20;;
6825;SDS011;3451;52.476;13.316;2022-09-29T15:42:51;4.60;;;2.73;;
6825;SDS011;3451;52.476;13.316;2022-09-29T15:45:22;6.23;;;2.50;;
6825;SDS011;3451;52.476;13.316;2022-09-29T15:47:57;7.60;;;2.47;;
6825;SDS011;3451;52.476;13.316;2022-09-29T15:50:25;3.03;;;2.30;;
6825;SDS011;3451;52.476;13.316;2022-09-29T15:52:51;2.50;;;2.03;;
6825;SDS011;3451;52.476;13.316;2022-09-29T15:55:18;3.37;;;2.33;;
6825;SDS011;3451;52.476;13.316;2022-09-29T15:57:47;5.63;;;2.90;;
6825;SDS011;3451;52.476;13.316;2022-09-29T16:05:17;4.10;;;2.30;;
6825;SDS011;3451;52.476;13.316;2022-09-29T16:07:46;5.90;;;2.80;;
6825;SDS011;3451;52.476;13.316;2022-09-29T16:10:15;4.73;;;2.50;;
6825;SDS011;3451;52.476;13.316;2022-09-29T16:12:46;4.63;;;2.63;;
6825;SDS011;3451;52.476;13.316;2022-09-29T16:15:19;4.03;;;3.00;;
6825;SDS011;3451;52.476;13.316;2022-09-29T16:17:46;3.77;;;2.50;;
6825;SDS011;3451;52.476;13.316;2022-09-29T16:20:14;3.97;;;2.70;;
6825;SDS011;3451;52.476;13.316;2022-09-29T16:22:46;3.03;;;2.30;;
6825;SDS011;3451;52.476;13.316;2022-09-29T16:25:22;3.83;;;2.57;;
6825;SDS011;3451;52.476;13.316;2022-09-29T16:27:50;6.37;;;3.13;;
6825;SDS011;3451;52.476;13.316;2022-09-29T16:30:23;4.60;;;2.70;;
6825;SDS011;3451;52.476;13.316;2022-09-29T16:32:54;4.60;;;2.87;;
6825;SDS011;3451;52.476;13.316;2022-09-29T16:35:41;4.10;;;3.17;;
6825;SDS011;3451;52.476;13.316;2022-09-29T16:40:38;3.73;;;2.97;;
6825;SDS011;3451;52.476;13.316;2022-09-29T16:43:05;3.50;;;2.90;;
6825;SDS011;3451;52.476;13.316;2022-09-29T16:45:42;6.60;;;3.00;;
6825;SDS011;3451;52.476;13.316;2022-09-29T16:48:12;4.07;;;3.03;;
6825;SDS011;3451;52.476;13.316;2022-09-29T16:50:44;4.33;;;3.00;;
6825;SDS011;3451;52.476;13.316;2022-09-29T16:53:18;4.70;;;2.60;;
6825;SDS011;3451;52.476;13.316;2022-09-29T16:56:01;4.10;;;2.80;;
6825;SDS011;3451;52.476;13.316;2022-09-29T16:58:28;5.03;;;2.83;;
6825;SDS011;3451;52.476;13.316;2022-09-29T17:00:55;4.60;;;2.80;;
6825;SDS011;3451;52.476;13.316;2022-09-29T17:03:21;3.67;;;2.93;;
6825;SDS011;3451;52.476;13.316;2022-09-29T17:05:48;4.13;;;3.10;;
6825;SDS011;3451;52.476;13.316;2022-09-29T17:08:16;4.57;;;2.60;;
6825;SDS011;3451;52.476;13.316;2022-09-29T17:10:43;3.77;;;2.97;;
6825;SDS011;3451;52.476;13.316;2022-09-29T17:13:12;5.70;;;3.40;;
6825;SDS011;3451;52.476;13.316;2022-09-29T17:15:40;4.07;;;3.43;;
6825;SDS011;3451;52.476;13.316;2022-09-29T17:18:09;5.10;;;3.57;;
6825;SDS011;3451;52.476;13.316;2022-09-29T17:20:35;4.77;;;3.50;;
6825;SDS011;3451;52.476;13.316;2022-09-29T17:23:01;6.77;;;3.83;;